Time;durP1;ratioP1;P1;durP2;ratioP2;P2;SDS_P1;SDS_P2;PMS_P1;PMS_P2;Temp;Humidity;BMP_temperature;BMP_pressure;BME280_temperature;BME280_humidity;BME280_pressure;Samples;Min_cycle;Max_cycle;Signal;HPM_P1;HPM_P2
2021/03/05 00:01:57;;;;;;;6.72;2.20;;;4.80;97.30;;;;;;1962839;73;21434;-76
2021/03/05 00:04:25;;;;;;;6.97;1.98;;;4.70;97.70;;;;;;1965032;73;21123;-77
2021/03/05 00:06:52;;;;;;;3.85;1.92;;;4.70;97.70;;;;;;1940491;73;21212;-77
2021/03/05 00:09:19;;;;;;;7.97;2.27;;;4.70;97.60;;;;;;1956530;73;21177;-79
2021/03/05 00:11:47;;;;;;;7.20;2.58;;;4.70;97.70;;;;;;1961896;72;21120;-78
2021/03/05 00:14:14;;;;;;;6.37;2.10;;;4.70;97.60;;;;;;1966398;73;21076;-79
2021/03/05 00:16:42;;;;;;;6.83;2.33;;;4.70;98.00;;;;;;1962883;71;21219;-77
2021/03/05 00:19:10;;;;;;;5.47;2.15;;;4.60;97.60;;;;;;1966260;71;21136;-76
2021/03/05 00:21:37;;;;;;;5.30;2.52;;;4.70;97.90;;;;;;1964050;73;21047;-77
2021/03/05 00:24:05;;;;;;;12.10;2.80;;;4.60;97.80;;;;;;1964280;71;21097;-76
2021/03/05 00:26:32;;;;;;;7.00;2.42;;;4.60;97.90;;;;;;1937556;73;21145;-76
2021/03/05 00:29:00;;;;;;;4.67;1.98;;;4.60;97.80;;;;;;1955006;72;21161;-77
2021/03/05 00:31:27;;;;;;;5.87;2.30;;;4.50;97.80;;;;;;1957263;72;21707;-78
2021/03/05 00:33:55;;;;;;;7.87;2.20;;;4.60;97.80;;;;;;1958701;72;21199;-78
2021/03/05 00:36:22;;;;;;;7.87;2.10;;;4.50;97.70;;;;;;1946313;72;21235;-78
2021/03/05 00:38:50;;;;;;;5.35;1.70;;;4.60;97.70;;;;;;1926878;73;21228;-77
2021/03/05 00:41:17;;;;;;;6.97;2.22;;;4.50;97.70;;;;;;1964128;72;21113;-77
2021/03/05 00:43:45;;;;;;;5.53;2.08;;;4.50;97.60;;;;;;1965939;73;21117;-77
2021/03/05 00:46:12;;;;;;;8.48;2.77;;;4.50;97.50;;;;;;1961624;73;21057;-77
2021/03/05 00:48:40;;;;;;;4.40;1.90;;;4.50;97.60;;;;;;1942640;72;21066;-75
2021/03/05 00:51:07;;;;;;;7.65;1.95;;;4.50;98.10;;;;;;1965642;73;21067;-77
2021/03/05 00:53:35;;;;;;;7.80;2.12;;;4.40;97.70;;;;;;1925917;73;21200;-77
2021/03/05 00:56:03;;;;;;;5.12;1.85;;;4.40;97.80;;;;;;1927760;73;21090;-77
2021/03/05 00:58:30;;;;;;;7.50;2.25;;;4.40;97.90;;;;;;1965266;71;21146;-77
2021/03/05 01:00:58;;;;;;;6.62;1.92;;;4.40;97.90;;;;;;1965964;71;21180;-76
2021/03/05 01:03:25;;;;;;;4.87;1.70;;;4.40;97.80;;;;;;1965743;71;21066;-77
2021/03/05 01:05:53;;;;;;;6.92;1.77;;;4.30;97.70;;;;;;1967547;71;21083;-76
2021/03/05 01:08:20;;;;;;;6.30;2.15;;;4.30;97.90;;;;;;1962689;71;21093;-76
2021/03/05 01:10:48;;;;;;;7.97;1.85;;;4.20;97.90;;;;;;1967168;71;21051;-77
2021/03/05 01:13:15;;;;;;;4.92;1.80;;;4.20;98.00;;;;;;1966712;71;21082;-78
2021/03/05 01:15:43;;;;;;;7.42;1.65;;;4.10;98.10;;;;;;1967566;71;21238;-76
2021/03/05 01:18:10;;;;;;;7.50;2.35;;;4.10;98.20;;;;;;1952745;72;21140;-76
2021/03/05 01:20:38;;;;;;;5.80;1.60;;;4.10;98.20;;;;;;1949944;72;21043;-76
2021/03/05 01:23:06;;;;;;;3.95;1.60;;;4.00;98.30;;;;;;1956965;71;21098;-78
2021/03/05 01:25:34;;;;;;;7.35;1.82;;;4.00;98.50;;;;;;1965775;73;21100;-76
2021/03/05 01:28:02;;;;;;;6.35;2.00;;;3.90;98.50;;;;;;1923655;73;21104;-76
2021/03/05 01:30:29;;;;;;;7.10;1.60;;;3.90;98.40;;;;;;1974992;71;21160;-76
2021/03/05 01:32:57;;;;;;;4.17;1.90;;;3.90;98.50;;;;;;1963235;71;21105;-77
2021/03/05 01:35:27;;;;;;;4.87;1.75;;;3.90;98.50;;;;;;1964878;71;21074;-79
2021/03/05 01:37:55;;;;;;;5.20;1.70;;;3.80;98.60;;;;;;1962460;71;21145;-78
2021/03/05 01:40:25;;;;;;;5.87;1.62;;;3.70;98.80;;;;;;1969124;71;21077;-79
2021/03/05 01:42:53;;;;;;;5.97;1.65;;;3.70;98.90;;;;;;1966412;71;21096;-79
2021/03/05 01:45:24;;;;;;;5.67;1.50;;;3.70;98.80;;;;;;1963295;71;21079;-79
2021/03/05 01:48:03;;;;;;;7.12;1.60;;;3.60;99.00;;;;;;1917678;73;21081;-79
2021/03/05 01:50:34;;;;;;;5.15;1.37;;;3.50;99.10;;;;;;1921215;73;21210;-78
2021/03/05 01:53:05;;;;;;;5.42;1.57;;;3.40;99.30;;;;;;1967075;71;21622;-78
2021/03/05 01:55:33;;;;;;;6.45;1.70;;;3.40;99.50;;;;;;1965823;71;21117;-79
2021/03/05 01:58:01;;;;;;;8.90;1.77;;;3.50;99.50;;;;;;1965799;71;21026;-78
2021/03/05 02:00:41;;;;;;;4.50;1.62;;;3.60;99.20;;;;;;1971617;71;21161;-80
2021/03/05 02:03:09;;;;;;;8.05;1.60;;;3.60;99.10;;;;;;1934401;73;21236;-79
2021/03/05 02:05:38;;;;;;;4.72;1.72;;;3.60;99.30;;;;;;1962923;73;21084;-77
2021/03/05 02:08:07;;;;;;;4.90;1.50;;;3.60;99.50;;;;;;1956260;73;21079;-80
2021/03/05 02:10:35;;;;;;;8.30;1.85;;;3.50;99.50;;;;;;1965136;71;21085;-77
2021/03/05 02:13:04;;;;;;;8.93;1.72;;;3.40;99.50;;;;;;1967496;71;21755;-79
2021/03/05 02:15:33;;;;;;;6.75;1.70;;;3.50;99.60;;;;;;1968093;71;21214;-79
2021/03/05 02:18:19;;;;;;;8.58;1.95;;;3.50;99.50;;;;;;1970184;71;21069;-77
2021/03/05 02:20:52;;;;;;;10.82;1.72;;;3.40;99.60;;;;;;1969902;71;21077;-80
2021/03/05 02:23:34;;;;;;;9.90;2.25;;;3.40;99.70;;;;;;1958565;72;21094;-81
2021/03/05 02:26:30;;;;;;;10.25;1.82;;;3.40;99.80;;;;;;1963332;72;21132;-80
2021/03/05 02:29:17;;;;;;;10.38;2.62;;;3.40;99.90;;;;;;1957166;71;21104;-79
2021/03/05 02:31:50;;;;;;;9.18;3.00;;;3.40;99.90;;;;;;1958939;72;21157;-76
2021/03/05 02:34:29;;;;;;;8.58;3.35;;;3.50;99.80;;;;;;1954729;72;21207;-76
2021/03/05 02:36:59;;;;;;;12.15;2.90;;;3.40;99.70;;;;;;1963041;72;21062;-80
2021/03/05 02:39:42;;;;;;;8.48;2.50;;;3.40;99.90;;;;;;1958011;71;21154;-77
2021/03/05 02:42:12;;;;;;;8.75;2.40;;;3.30;99.90;;;;;;1951570;72;21195;-76
2021/03/05 02:44:43;;;;;;;4.72;2.08;;;3.20;99.90;;;;;;1957602;71;21172;-76
2021/03/05 02:47:13;;;;;;;7.05;1.75;;;3.20;99.90;;;;;;1960901;72;21187;-77
2021/03/05 02:49:43;;;;;;;5.47;1.50;;;3.20;99.90;;;;;;1971094;72;21154;-75
2021/03/05 02:52:17;;;;;;;8.13;2.15;;;3.10;99.90;;;;;;1960517;72;21149;-75
2021/03/05 02:54:46;;;;;;;11.48;1.95;;;3.20;99.90;;;;;;1962693;72;21138;-76
2021/03/05 02:57:16;;;;;;;6.28;2.17;;;3.10;99.90;;;;;;1953719;71;21200;-77
2021/03/05 02:59:45;;;;;;;6.00;1.55;;;3.10;99.90;;;;;;1952923;72;21329;-75
2021/03/05 03:02:14;;;;;;;5.87;1.50;;;3.10;99.90;;;;;;1956947;72;21114;-76
2021/03/05 03:04:45;;;;;;;7.00;2.08;;;3.10;99.90;;;;;;1960424;72;21094;-75
2021/03/05 03:07:14;;;;;;;4.43;1.73;;;3.10;99.90;;;;;;1963970;72;21059;-76
2021/03/05 03:09:42;;;;;;;7.87;1.62;;;3.10;99.90;;;;;;1962048;72;21079;-74
2021/03/05 03:12:15;;;;;;;5.50;1.80;;;3.10;99.90;;;;;;1954325;73;21058;-76
2021/03/05 03:14:44;;;;;;;4.92;1.87;;;3.10;99.90;;;;;;1964438;71;21059;-75
2021/03/05 03:17:14;;;;;;;5.58;1.72;;;3.20;99.90;;;;;;1962956;72;21116;-76
2021/03/05 03:19:51;;;;;;;6.15;1.60;;;3.10;99.90;;;;;;1958486;72;21070;-77
2021/03/05 03:22:19;;;;;;;7.95;1.92;;;3.20;99.90;;;;;;1953211;71;21128;-77
2021/03/05 03:24:47;;;;;;;8.58;1.98;;;3.20;99.90;;;;;;1959796;72;21223;-77
2021/03/05 03:27:14;;;;;;;11.43;1.87;;;3.20;99.90;;;;;;1962651;72;21130;-78
2021/03/05 03:29:42;;;;;;;6.42;1.77;;;3.10;99.90;;;;;;1965178;71;21183;-78
2021/03/05 03:32:12;;;;;;;6.17;1.80;;;3.00;99.90;;;;;;1965743;72;21050;-78
2021/03/05 03:34:42;;;;;;;6.05;1.70;;;3.10;99.90;;;;;;1965136;72;21206;-78
2021/03/05 03:37:11;;;;;;;7.03;1.62;;;3.10;99.90;;;;;;1959370;72;21077;-78
2021/03/05 03:39:39;;;;;;;6.80;2.22;;;3.10;99.90;;;;;;1956639;72;21168;-78
2021/03/05 03:42:07;;;;;;;6.45;1.90;;;3.10;99.90;;;;;;1958225;72;21029;-78
2021/03/05 03:44:34;;;;;;;6.25;1.87;;;3.10;99.90;;;;;;1956461;72;21130;-77
2021/03/05 03:47:02;;;;;;;7.45;1.87;;;3.10;99.90;;;;;;1960154;72;21721;-76
2021/03/05 03:49:42;;;;;;;4.17;1.67;;;3.10;99.90;;;;;;1953031;72;21135;-76
2021/03/05 03:52:29;;;;;;;6.25;1.82;;;3.10;99.90;;;;;;1955741;71;21010;-75
2021/03/05 03:54:58;;;;;;;5.35;1.57;;;3.00;99.90;;;;;;1958903;72;21094;-76
2021/03/05 03:57:27;;;;;;;7.92;1.72;;;2.90;99.90;;;;;;1962062;72;21104;-79
2021/03/05 03:59:58;;;;;;;6.78;2.00;;;2.90;99.90;;;;;;1957150;72;21208;-78
2021/03/05 04:02:28;;;;;;;7.83;1.80;;;2.90;99.90;;;;;;1957524;71;21100;-74
2021/03/05 04:04:58;;;;;;;7.12;2.02;;;2.90;99.90;;;;;;1962293;72;21114;-74
2021/03/05 04:07:27;;;;;;;7.53;1.98;;;2.90;99.90;;;;;;1960187;72;21264;-76
2021/03/05 04:09:57;;;;;;;5.08;1.70;;;2.80;99.90;;;;;;1953751;72;21180;-76
2021/03/05 04:12:27;;;;;;;7.78;2.25;;;2.80;99.90;;;;;;1952781;72;21078;-77
2021/03/05 04:14:57;;;;;;;7.05;2.10;;;2.80;99.90;;;;;;1960763;72;21146;-76
2021/03/05 04:17:24;;;;;;;6.50;2.00;;;2.80;99.90;;;;;;1953658;71;21121;-76
2021/03/05 04:19:53;;;;;;;9.65;2.00;;;2.80;99.90;;;;;;1957913;71;21066;-76
2021/03/05 04:22:22;;;;;;;6.83;2.20;;;2.80;99.90;;;;;;1958244;72;21082;-75
2021/03/05 04:24:50;;;;;;;6.17;1.82;;;2.80;99.90;;;;;;1964461;71;21129;-78
2021/03/05 04:27:18;;;;;;;6.12;1.87;;;2.80;99.90;;;;;;1953066;72;21232;-78
2021/03/05 04:29:45;;;;;;;8.63;2.37;;;2.70;99.90;;;;;;1881364;72;21190;-81
2021/03/05 04:32:13;;;;;;;5.70;1.82;;;2.70;99.90;;;;;;1856321;76;21133;-80
2021/03/05 04:34:40;;;;;;;5.95;1.85;;;2.80;99.90;;;;;;1863469;75;21109;-81
2021/03/05 04:37:08;;;;;;;5.65;1.80;;;2.80;99.90;;;;;;1858703;76;21171;-80
2021/03/05 04:39:35;;;;;;;5.70;1.67;;;2.70;99.90;;;;;;1870853;75;21140;-81
2021/03/05 04:42:03;;;;;;;7.85;1.95;;;2.70;99.90;;;;;;1893957;75;21105;-79
2021/03/05 04:44:31;;;;;;;4.90;1.80;;;2.70;99.90;;;;;;1888976;75;21277;-79
2021/03/05 04:46:59;;;;;;;6.17;1.70;;;2.60;99.90;;;;;;1897979;75;22114;-79
2021/03/05 04:49:27;;;;;;;6.47;1.87;;;2.60;99.90;;;;;;1890755;75;21129;-81
2021/03/05 04:51:54;;;;;;;6.67;2.27;;;2.60;99.90;;;;;;1895482;75;21619;-81
2021/03/05 04:54:23;;;;;;;5.95;2.37;;;2.60;99.90;;;;;;1889532;74;21121;-81
2021/03/05 04:56:50;;;;;;;4.55;1.50;;;2.60;99.90;;;;;;1895353;75;21143;-81
2021/03/05 04:59:18;;;;;;;7.28;2.30;;;2.70;99.90;;;;;;1894523;75;21114;-82
2021/03/05 05:01:45;;;;;;;7.37;2.10;;;2.70;99.90;;;;;;1896835;75;21019;-82
2021/03/05 05:04:13;;;;;;;8.65;2.05;;;2.70;99.90;;;;;;1890008;74;21270;-80
2021/03/05 05:06:40;;;;;;;5.33;1.60;;;2.70;99.90;;;;;;1894021;74;21163;-81
2021/03/05 05:09:08;;;;;;;4.92;1.87;;;2.70;99.90;;;;;;1892910;75;21106;-81
2021/03/05 05:11:35;;;;;;;7.17;2.17;;;2.70;99.90;;;;;;1890032;75;21653;-80
2021/03/05 05:14:03;;;;;;;7.05;1.92;;;2.80;99.90;;;;;;1894299;74;21046;-80
2021/03/05 05:16:31;;;;;;;7.28;1.98;;;2.70;99.90;;;;;;1890644;75;21148;-82
2021/03/05 05:18:58;;;;;;;6.65;1.87;;;2.80;99.90;;;;;;1891165;75;21122;-80
2021/03/05 05:21:26;;;;;;;6.25;2.10;;;2.80;99.90;;;;;;1891364;73;21567;-81
2021/03/05 05:23:53;;;;;;;6.03;2.00;;;2.80;99.90;;;;;;1891846;75;21227;-81
2021/03/05 05:26:21;;;;;;;4.70;2.25;;;2.80;99.90;;;;;;1892823;75;21035;-79
2021/03/05 05:28:48;;;;;;;5.87;2.00;;;2.70;99.90;;;;;;1889206;74;21070;-81
2021/03/05 05:31:16;;;;;;;9.13;2.02;;;2.70;99.90;;;;;;1890632;75;21035;-80
2021/03/05 05:33:43;;;;;;;6.87;2.12;;;2.70;99.90;;;;;;1890521;74;21043;-80
2021/03/05 05:36:11;;;;;;;10.93;2.10;;;2.70;99.90;;;;;;1897681;75;21584;-81
2021/03/05 05:38:38;;;;;;;6.05;2.10;;;2.70;99.90;;;;;;1889164;75;21068;-80
2021/03/05 05:41:06;;;;;;;7.90;2.22;;;2.70;99.90;;;;;;1894800;75;21167;-80
2021/03/05 05:43:33;;;;;;;8.08;3.00;;;2.70;99.90;;;;;;1894636;74;21245;-79
2021/03/05 05:46:04;;;;;;;6.08;2.22;;;2.70;99.90;;;;;;1897694;74;21112;-81
2021/03/05 05:48:33;;;;;;;8.25;2.33;;;2.70;99.90;;;;;;1896321;75;21513;-80
2021/03/05 05:51:02;;;;;;;7.40;2.47;;;2.80;99.90;;;;;;1894026;74;21513;-80
2021/03/05 05:53:33;;;;;;;6.35;2.15;;;2.80;99.90;;;;;;1892882;74;21097;-80
2021/03/05 05:56:00;;;;;;;7.78;2.52;;;2.80;99.90;;;;;;1896743;74;21191;-78
2021/03/05 05:58:29;;;;;;;6.50;2.87;;;2.80;99.90;;;;;;1890460;74;21642;-80
2021/03/05 06:00:57;;;;;;;7.87;2.40;;;2.80;99.90;;;;;;1900933;74;21082;-83
2021/03/05 06:03:28;;;;;;;3.72;2.35;;;2.80;99.90;;;;;;1890752;74;21023;-81
2021/03/05 06:05:57;;;;;;;7.62;2.55;;;2.70;99.90;;;;;;1890550;75;21645;-79
2021/03/05 06:08:25;;;;;;;7.83;2.42;;;2.60;99.90;;;;;;1897272;75;21046;-79
2021/03/05 06:10:53;;;;;;;6.05;2.45;;;2.60;99.90;;;;;;1890508;74;21117;-78
2021/03/05 06:13:21;;;;;;;6.37;2.15;;;2.60;99.90;;;;;;1895915;75;21014;-79
2021/03/05 06:16:08;;;;;;;8.30;2.40;;;2.60;99.90;;;;;;1892166;74;21668;-80
2021/03/05 06:18:35;;;;;;;4.58;2.10;;;2.60;99.90;;;;;;1882099;75;21120;-80
2021/03/05 06:21:03;;;;;;;7.65;2.58;;;2.50;99.90;;;;;;1894672;74;21058;-80
2021/03/05 06:23:31;;;;;;;4.67;2.10;;;2.50;99.90;;;;;;1886676;75;21226;-80
2021/03/05 06:26:02;;;;;;;8.03;2.60;;;2.40;99.90;;;;;;1896268;74;21122;-76
2021/03/05 06:28:30;;;;;;;6.75;2.70;;;2.50;99.90;;;;;;1890282;75;21135;-76
2021/03/05 06:30:58;;;;;;;10.43;2.58;;;2.50;99.90;;;;;;1892400;74;21111;-78
2021/03/05 06:33:30;;;;;;;8.98;2.95;;;2.50;99.90;;;;;;1885085;75;21112;-75
2021/03/05 06:36:15;;;;;;;7.12;2.75;;;2.50;99.90;;;;;;1894792;74;21129;-76
2021/03/05 06:38:45;;;;;;;8.53;3.10;;;2.50;99.90;;;;;;1899097;74;21136;-78
2021/03/05 06:41:27;;;;;;;9.45;2.87;;;2.50;99.90;;;;;;1890355;74;21102;-78
2021/03/05 06:44:00;;;;;;;5.37;2.62;;;2.40;99.90;;;;;;1898235;75;21066;-81
2021/03/05 06:46:31;;;;;;;7.20;2.77;;;2.50;99.90;;;;;;1893771;75;21164;-83
2021/03/05 06:49:00;;;;;;;8.63;2.30;;;2.50;99.90;;;;;;1899494;74;21750;-83
2021/03/05 06:51:29;;;;;;;7.53;2.77;;;2.50;99.90;;;;;;1888426;74;21089;-84
2021/03/05 06:54:08;;;;;;;6.85;2.10;;;2.50;99.90;;;;;;1895583;75;21049;-84
2021/03/05 06:56:37;;;;;;;5.58;2.35;;;2.60;99.90;;;;;;1883309;75;21163;-83
2021/03/05 06:59:12;;;;;;;7.45;2.45;;;2.80;99.90;;;;;;1898716;74;21428;-82
2021/03/05 07:01:52;;;;;;;9.00;2.85;;;2.90;99.90;;;;;;1896132;74;21039;-83
2021/03/05 07:04:22;;;;;;;6.90;2.55;;;2.90;99.90;;;;;;1893754;74;21096;-81
2021/03/05 07:07:09;;;;;;;10.63;2.65;;;3.00;99.90;;;;;;1893112;73;21070;-81
2021/03/05 07:09:42;;;;;;;3.85;1.92;;;3.10;99.90;;;;;;1906225;74;21066;-82
2021/03/05 07:12:11;;;;;;;5.78;2.45;;;3.20;99.90;;;;;;1890349;75;21208;-80
2021/03/05 07:14:42;;;;;;;5.72;2.00;;;3.30;99.90;;;;;;1892154;75;21583;-81
2021/03/05 07:17:10;;;;;;;4.53;2.20;;;3.40;99.70;;;;;;1891808;75;21094;-82
2021/03/05 07:19:39;;;;;;;5.87;2.27;;;3.40;99.60;;;;;;1897545;74;21636;-77
2021/03/05 07:22:08;;;;;;;5.12;2.27;;;3.60;99.60;;;;;;1894109;74;21601;-77
2021/03/05 07:24:40;;;;;;;10.55;3.10;;;3.70;99.40;;;;;;1891007;74;21093;-79
2021/03/05 07:27:08;;;;;;;;;;;3.80;99.10;;;;;;1891536;74;21192;-78
2021/03/05 07:29:43;;;;;;;9.00;1.98;;;4.00;98.90;;;;;;1888027;74;20195;-78
2021/03/05 07:32:22;;;;;;;5.12;1.72;;;4.10;98.60;;;;;;1898306;73;21082;-78
2021/03/05 07:34:58;;;;;;;5.35;2.08;;;4.20;98.20;;;;;;1894186;74;21098;-77
2021/03/05 07:37:34;;;;;;;7.30;1.92;;;4.40;98.00;;;;;;1895739;75;21196;-79
2021/03/05 07:40:08;;;;;;;7.42;2.02;;;4.50;97.30;;;;;;1891099;74;21129;-82
2021/03/05 07:42:35;;;;;;;7.17;1.77;;;4.70;97.20;;;;;;1893152;74;21159;-81
2021/03/05 07:45:04;;;;;;;8.50;2.47;;;4.90;97.10;;;;;;1895732;75;21364;-81
2021/03/05 07:47:34;;;;;;;8.80;2.15;;;5.00;96.70;;;;;;1895667;75;21117;-78
2021/03/05 07:50:03;;;;;;;6.17;2.05;;;5.20;96.50;;;;;;1899785;74;21102;-81
2021/03/05 07:52:31;;;;;;;5.25;2.00;;;5.30;96.40;;;;;;1893910;74;21134;-83
2021/03/05 07:54:59;;;;;;;7.10;2.00;;;5.50;96.10;;;;;;1897614;74;21065;-82
2021/03/05 07:57:32;;;;;;;6.62;2.20;;;5.70;95.90;;;;;;1894794;74;21104;-82
2021/03/05 08:00:01;;;;;;;7.15;2.10;;;5.80;95.60;;;;;;1896928;74;21195;-82
2021/03/05 08:02:57;;;;;;;4.55;2.00;;;5.90;95.30;;;;;;1898117;74;21222;-82
2021/03/05 08:05:39;;;;;;;5.30;1.90;;;6.00;94.90;;;;;;1895290;74;21030;-81
2021/03/05 08:08:25;;;;;;;8.57;2.03;;;6.00;94.80;;;;;;1899044;74;21047;-81
2021/03/05 08:10:56;;;;;;;4.87;1.92;;;6.10;94.80;;;;;;1896669;74;21364;-81
2021/03/05 08:13:50;;;;;;;4.65;2.10;;;6.20;95.00;;;;;;1895821;73;21042;-82
2021/03/05 08:16:29;;;;;;;12.40;2.33;;;6.30;94.90;;;;;;1900650;74;21071;-82
2021/03/05 08:19:09;;;;;;;4.62;2.08;;;6.30;94.50;;;;;;1897139;74;21544;-82
2021/03/05 08:21:57;;;;;;;7.85;2.08;;;6.40;94.50;;;;;;1898828;74;21082;-81
2021/03/05 08:24:41;;;;;;;3.77;1.70;;;6.50;94.60;;;;;;1894772;74;21179;-82
2021/03/05 08:27:37;;;;;;;7.08;2.12;;;6.60;94.50;;;;;;1894989;74;21129;-81
2021/03/05 08:30:12;;;;;;;4.65;1.62;;;6.70;94.60;;;;;;1891177;74;21122;-81
2021/03/05 08:32:53;;;;;;;5.15;1.62;;;6.80;94.40;;;;;;1895515;74;21026;-81
2021/03/05 08:35:34;;;;;;;3.83;1.90;;;6.80;94.50;;;;;;1893587;74;21593;-81
2021/03/05 08:38:05;;;;;;;6.42;2.12;;;6.90;94.20;;;;;;1884167;75;21654;-81
2021/03/05 08:40:34;;;;;;;3.33;1.75;;;7.00;94.40;;;;;;1888574;75;21232;-82
2021/03/05 08:43:13;;;;;;;5.08;1.62;;;7.10;94.30;;;;;;1898329;74;21211;-82
2021/03/05 08:45:52;;;;;;;4.87;1.85;;;7.20;94.10;;;;;;1895280;74;21082;-82
2021/03/05 08:48:36;;;;;;;7.97;2.05;;;7.20;93.40;;;;;;1895850;74;21242;-82
2021/03/05 08:51:09;;;;;;;7.85;1.98;;;7.30;94.10;;;;;;1892068;74;21190;-82
2021/03/05 08:53:45;;;;;;;4.58;1.82;;;7.30;93.30;;;;;;1888763;75;21167;-82
2021/03/05 08:56:18;;;;;;;5.45;1.75;;;7.30;93.20;;;;;;1892156;75;21073;-79
2021/03/05 08:58:58;;;;;;;5.33;1.80;;;7.40;93.00;;;;;;1893279;75;21130;-83
2021/03/05 09:01:31;;;;;;;6.08;1.67;;;7.50;92.70;;;;;;1898271;74;21145;-84
2021/03/05 09:04:19;;;;;;;7.17;2.10;;;7.60;92.70;;;;;;1891595;75;21552;-81
2021/03/05 09:06:54;;;;;;;5.10;1.50;;;7.70;92.60;;;;;;1889461;74;21118;-82
2021/03/05 09:09:25;;;;;;;11.12;2.02;;;7.70;92.40;;;;;;1891352;75;21124;-80
2021/03/05 09:12:13;;;;;;;8.10;1.72;;;7.80;92.30;;;;;;1898934;74;21356;-80
2021/03/05 09:14:43;;;;;;;5.37;1.90;;;7.80;92.30;;;;;;1891969;74;21624;-81
2021/03/05 09:17:13;;;;;;;6.78;1.70;;;8.00;92.50;;;;;;1893828;74;21585;-80
2021/03/05 09:19:46;;;;;;;5.80;1.50;;;8.10;91.70;;;;;;1893195;75;21211;-81
2021/03/05 09:22:22;;;;;;;3.70;1.30;;;8.30;91.40;;;;;;1895909;75;21066;-80
2021/03/05 09:25:06;;;;;;;3.02;1.30;;;8.40;90.90;;;;;;1889962;74;21117;-82
2021/03/05 09:27:44;;;;;;;4.85;1.50;;;8.50;91.20;;;;;;1894865;75;21182;-81
2021/03/05 09:30:20;;;;;;;5.12;1.20;;;8.50;90.60;;;;;;1893717;74;21110;-80
2021/03/05 09:32:50;;;;;;;5.53;1.32;;;8.60;90.90;;;;;;1896212;73;21114;-80
2021/03/05 09:35:23;;;;;;;3.45;1.25;;;8.80;90.10;;;;;;1896537;74;21114;-80
2021/03/05 09:37:51;;;;;;;3.37;1.60;;;8.90;89.50;;;;;;1897894;74;21082;-82
2021/03/05 09:40:19;;;;;;;6.80;1.20;;;9.10;88.20;;;;;;1897674;74;21121;-82
2021/03/05 09:42:55;;;;;;;7.08;1.22;;;9.20;87.10;;;;;;1899191;74;21304;-79
2021/03/05 09:45:43;;;;;;;3.65;1.40;;;9.30;86.90;;;;;;1892256;74;21118;-80
2021/03/05 09:48:13;;;;;;;4.60;0.95;;;9.40;86.90;;;;;;1805260;77;21070;-81
2021/03/05 09:50:41;;;;;;;8.38;1.67;;;9.60;85.70;;;;;;1890547;74;21733;-81
2021/03/05 09:53:19;;;;;;;8.65;1.55;;;9.70;83.80;;;;;;1891755;74;21070;-81
2021/03/05 09:55:52;;;;;;;3.98;1.05;;;9.90;82.20;;;;;;1890416;74;21090;-79
2021/03/05 09:58:20;;;;;;;5.40;1.37;;;9.90;81.10;;;;;;1895508;74;21180;-80
2021/03/05 10:00:50;;;;;;;4.12;1.02;;;10.10;80.50;;;;;;1893244;74;21157;-79
2021/03/05 10:03:18;;;;;;;2.50;1.05;;;10.20;80.20;;;;;;1896651;74;21074;-79
2021/03/05 10:05:46;;;;;;;4.75;1.12;;;10.50;79.30;;;;;;1895651;74;21126;-79
2021/03/05 10:08:22;;;;;;;2.75;1.12;;;10.70;79.30;;;;;;1899810;74;21098;-80
2021/03/05 10:11:03;;;;;;;2.60;0.78;;;10.80;76.20;;;;;;1898284;74;21126;-79
2021/03/05 10:13:48;;;;;;;3.98;1.00;;;10.90;73.20;;;;;;1898254;74;21117;-80
2021/03/05 10:16:25;;;;;;;6.30;1.00;;;11.00;74.40;;;;;;1897242;74;21220;-79
2021/03/05 10:19:01;;;;;;;1.75;0.70;;;11.00;72.20;;;;;;1894013;74;21213;-80
2021/03/05 10:21:29;;;;;;;6.97;0.90;;;11.00;72.50;;;;;;1890295;74;21090;-80
2021/03/05 10:23:57;;;;;;;6.80;1.02;;;11.10;71.60;;;;;;1886908;74;21054;-80
2021/03/05 10:26:29;;;;;;;2.98;0.80;;;11.20;68.50;;;;;;1893240;74;21098;-79
2021/03/05 10:29:05;;;;;;;3.80;1.10;;;11.20;69.00;;;;;;1892697;74;21125;-79
2021/03/05 10:31:50;;;;;;;5.03;0.70;;;11.20;67.40;;;;;;1896083;74;21151;-80
2021/03/05 10:34:27;;;;;;;2.92;0.80;;;11.40;67.60;;;;;;1895384;70;21097;-82
2021/03/05 10:37:02;;;;;;;3.60;0.95;;;11.50;65.60;;;;;;1888604;74;21155;-82
2021/03/05 10:39:35;;;;;;;3.30;1.12;;;11.70;66.30;;;;;;1885603;74;21574;-83
2021/03/05 10:42:08;;;;;;;2.47;0.70;;;11.90;65.90;;;;;;1892172;74;21209;-81
2021/03/05 10:44:43;;;;;;;2.15;0.85;;;11.90;64.70;;;;;;1859349;75;21572;-83
2021/03/05 10:47:26;;;;;;;2.55;0.70;;;12.00;64.00;;;;;;1857600;75;21162;-82
2021/03/05 10:49:49;;;;;;;3.83;0.70;;;12.20;65.00;;;;;;1842702;75;21623;-79
2021/03/05 10:52:18;;;;;;;2.35;0.72;;;12.40;64.00;;;;;;1856459;75;21122;-78
2021/03/05 10:54:47;;;;;;;3.15;0.50;;;12.50;63.80;;;;;;1857312;76;21233;-81
2021/03/05 10:57:16;;;;;;;4.95;0.98;;;12.70;63.60;;;;;;1853241;75;21626;-80
2021/03/05 10:59:44;;;;;;;5.22;0.78;;;12.80;63.30;;;;;;1864141;75;21108;-80
2021/03/05 11:02:12;;;;;;;3.52;0.78;;;12.80;64.30;;;;;;1853248;75;21495;-80
2021/03/05 11:04:40;;;;;;;2.58;0.70;;;13.00;65.60;;;;;;1860595;75;21134;-78
2021/03/05 11:07:08;;;;;;;2.87;0.78;;;13.20;64.80;;;;;;1856954;75;21625;-78
2021/03/05 11:09:36;;;;;;;5.90;0.70;;;13.30;63.90;;;;;;1854058;75;21167;-76
2021/03/05 11:12:04;;;;;;;2.60;0.50;;;13.40;63.90;;;;;;1853023;75;21111;-79
2021/03/05 11:14:32;;;;;;;3.95;1.05;;;13.60;62.70;;;;;;1854996;75;21662;-78
2021/03/05 11:16:59;;;;;;;2.77;0.78;;;13.60;61.60;;;;;;1861797;75;21259;-80
2021/03/05 11:19:27;;;;;;;1.98;0.75;;;13.70;62.00;;;;;;1854462;75;21112;-80
2021/03/05 11:21:55;;;;;;;4.15;0.80;;;13.90;63.60;;;;;;1850777;75;21614;-86
2021/03/05 11:24:22;;;;;;;2.35;0.60;;;14.00;62.60;;;;;;1850847;75;21710;-82
2021/03/05 11:26:50;;;;;;;1.80;0.60;;;14.20;61.40;;;;;;1863509;75;21106;-83
2021/03/05 11:29:17;;;;;;;1.87;0.60;;;14.30;60.80;;;;;;1855897;76;21073;-83
2021/03/05 11:31:45;;;;;;;2.62;0.80;;;14.50;60.20;;;;;;1852008;76;21742;-79
2021/03/05 11:34:12;;;;;;;2.95;1.00;;;14.70;60.90;;;;;;1858859;76;21136;-79
2021/03/05 11:36:42;;;;;;;2.52;0.68;;;14.90;59.20;;;;;;1853730;76;21118;-80
2021/03/05 11:39:09;;;;;;;2.22;0.60;;;15.10;59.00;;;;;;1852450;75;21136;-79
2021/03/05 11:41:36;;;;;;;3.47;0.75;;;15.20;58.30;;;;;;1836280;76;21170;-80
2021/03/05 11:44:04;;;;;;;5.12;0.98;;;15.30;57.20;;;;;;1854322;76;21527;-80
2021/03/05 11:46:33;;;;;;;2.85;0.78;;;15.50;56.20;;;;;;1846469;76;21214;-79
2021/03/05 11:49:01;;;;;;;4.42;0.85;;;15.60;55.80;;;;;;1844001;76;21056;-79
2021/03/05 11:51:28;;;;;;;3.08;0.62;;;15.80;56.10;;;;;;1846857;76;21112;-79
2021/03/05 11:53:56;;;;;;;2.83;0.70;;;16.00;54.30;;;;;;1846612;76;21700;-80
2021/03/05 11:56:23;;;;;;;4.75;0.95;;;16.20;53.90;;;;;;1847209;76;21108;-79
2021/03/05 11:58:51;;;;;;;2.42;0.50;;;16.40;54.10;;;;;;1840680;76;21136;-79
2021/03/05 12:01:19;;;;;;;4.45;0.60;;;16.60;54.10;;;;;;1849362;76;21608;-80
2021/03/05 12:03:46;;;;;;;2.60;0.60;;;16.80;54.60;;;;;;1851157;75;22188;-84
2021/03/05 12:06:14;;;;;;;2.27;0.60;;;17.10;52.50;;;;;;1861109;75;21135;-84
2021/03/05 12:08:41;;;;;;;4.35;0.78;;;17.20;50.90;;;;;;1857715;75;21064;-85
2021/03/05 12:11:09;;;;;;;4.22;0.65;;;17.40;50.90;;;;;;1856369;75;21166;-84
2021/03/05 12:13:36;;;;;;;3.10;0.90;;;17.50;49.00;;;;;;1855392;75;21180;-83
2021/03/05 12:16:04;;;;;;;2.70;0.65;;;17.70;49.40;;;;;;1859408;75;21063;-84
2021/03/05 12:18:32;;;;;;;2.35;0.53;;;17.90;48.70;;;;;;1849602;75;21543;-83
2021/03/05 12:21:00;;;;;;;7.62;0.70;;;18.10;48.30;;;;;;1856482;75;21173;-85
2021/03/05 12:23:29;;;;;;;4.92;0.70;;;18.30;48.20;;;;;;1851823;75;21089;-85
2021/03/05 12:25:56;;;;;;;1.67;0.50;;;18.60;47.70;;;;;;1854562;75;21073;-83
2021/03/05 12:28:24;;;;;;;4.30;0.80;;;18.80;47.10;;;;;;1856665;75;21121;-82
2021/03/05 12:30:52;;;;;;;2.50;0.75;;;19.00;47.80;;;;;;1852167;75;21177;-82
2021/03/05 12:33:19;;;;;;;2.77;0.75;;;19.10;45.60;;;;;;1851669;75;21226;-85
2021/03/05 12:35:47;;;;;;;3.35;0.80;;;19.30;46.10;;;;;;1846601;75;21136;-85
2021/03/05 12:38:14;;;;;;;2.05;0.50;;;19.50;44.00;;;;;;1857518;75;21079;-82
2021/03/05 12:40:41;;;;;;;1.77;0.60;;;19.70;43.10;;;;;;1850013;76;21608;-82
2021/03/05 12:43:09;;;;;;;3.02;0.70;;;19.80;42.90;;;;;;1860436;74;21174;-81
2021/03/05 12:45:37;;;;;;;2.22;0.50;;;19.90;42.40;;;;;;1855944;75;21128;-82
2021/03/05 12:48:05;;;;;;;2.08;0.57;;;20.10;43.20;;;;;;1851475;75;21097;-82
2021/03/05 12:50:33;;;;;;;1.25;0.50;;;20.30;41.40;;;;;;1850317;75;21624;-82
2021/03/05 12:53:00;;;;;;;4.00;0.82;;;20.70;40.80;;;;;;1859530;75;21295;-83
2021/03/05 12:55:28;;;;;;;2.60;0.57;;;20.80;40.70;;;;;;1849422;75;21096;-82
2021/03/05 12:57:56;;;;;;;1.47;0.60;;;21.30;40.00;;;;;;1851978;75;21158;-83
2021/03/05 13:00:24;;;;;;;5.10;0.88;;;21.80;40.30;;;;;;1852601;75;21158;-81
2021/03/05 13:02:51;;;;;;;2.02;0.57;;;22.10;39.80;;;;;;1851191;75;21210;-84
2021/03/05 13:05:19;;;;;;;1.72;0.60;;;22.40;38.10;;;;;;1858525;75;21135;-83
2021/03/05 13:07:46;;;;;;;3.50;0.50;;;22.70;38.00;;;;;;1853496;75;21140;-83
2021/03/05 13:10:15;;;;;;;3.60;0.70;;;23.10;38.50;;;;;;1852358;75;21093;-83
2021/03/05 13:12:42;;;;;;;3.35;0.85;;;23.50;38.10;;;;;;1866147;75;21239;-84
2021/03/05 13:15:10;;;;;;;1.82;0.62;;;23.90;37.30;;;;;;1856498;75;21640;-83